sensor_id;sensor_type;location;lat;lon;timestamp;pressure;altitude;pressure_sealevel;temperature;humidity
35435;BME280;21556;55.782;37.528;2023-04-26T00:01:01;98470.16;;;14.55;100.00
35435;BME280;21556;55.782;37.528;2023-04-26T00:03:33;98471.06;;;14.03;100.00
35435;BME280;21556;55.782;37.528;2023-04-26T00:06:02;98471.47;;;14.30;100.00
35435;BME280;21556;55.782;37.528;2023-04-26T00:08:28;98459.03;;;14.38;100.00
35435;BME280;21556;55.782;37.528;2023-04-26T00:10:54;98460.44;;;14.56;100.00
35435;BME280;21556;55.782;37.528;2023-04-26T00:13:22;98453.75;;;14.38;100.00
35435;BME280;21556;55.782;37.528;2023-04-26T00:15:49;98445.41;;;14.11;100.00
35435;BME280;21556;55.782;37.528;2023-04-26T00:18:15;98448.97;;;14.10;100.00
35435;BME280;21556;55.782;37.528;2023-04-26T00:20:43;98450.50;;;14.24;100.00
35435;BME280;21556;55.782;37.528;2023-04-26T00:23:09;98444.84;;;13.94;100.00
35435;BME280;21556;55.782;37.528;2023-04-26T00:25:36;98444.00;;;13.90;100.00
35435;BME280;21556;55.782;37.528;2023-04-26T00:28:03;98442.00;;;14.05;100.00
35435;BME280;21556;55.782;37.528;2023-04-26T00:30:29;98437.31;;;14.24;100.00
35435;BME280;21556;55.782;37.528;2023-04-26T00:32:55;98439.59;;;14.42;100.00
35435;BME280;21556;55.782;37.528;2023-04-26T00:35:20;98440.00;;;14.20;100.00
35435;BME280;21556;55.782;37.528;2023-04-26T00:37:47;98435.81;;;14.07;100.00
35435;BME280;21556;55.782;37.528;2023-04-26T00:40:13;98427.13;;;14.02;100.00
35435;BME280;21556;55.782;37.528;2023-04-26T00:42:40;98423.06;;;13.83;100.00
35435;BME280;21556;55.782;37.528;2023-04-26T00:45:06;98427.38;;;13.88;100.00
35435;BME280;21556;55.782;37.528;2023-04-26T00:47:33;98422.09;;;13.87;100.00
35435;BME280;21556;55.782;37.528;2023-04-26T00:49:59;98418.03;;;13.69;100.00
35435;BME280;21556;55.782;37.528;2023-04-26T00:52:26;98408.72;;;13.99;100.00
35435;BME280;21556;55.782;37.528;2023-04-26T00:54:53;98410.72;;;13.85;100.00
35435;BME280;21556;55.782;37.528;2023-04-26T00:57:20;98407.47;;;13.70;100.00
35435;BME280;21556;55.782;37.528;2023-04-26T00:59:46;98407.19;;;13.87;100.00
35435;BME280;21556;55.782;37.528;2023-04-26T01:02:14;98395.66;;;13.93;100.00
35435;BME280;21556;55.782;37.528;2023-04-26T01:04:42;98397.88;;;13.66;100.00
35435;BME280;21556;55.782;37.528;2023-04-26T01:07:09;98398.03;;;13.56;100.00
35435;BME280;21556;55.782;37.528;2023-04-26T01:09:39;98397.78;;;13.71;100.00
35435;BME280;21556;55.782;37.528;2023-04-26T01:12:07;98391.41;;;13.83;100.00
35435;BME280;21556;55.782;37.528;2023-04-26T01:14:33;98391.72;;;13.66;100.00
35435;BME280;21556;55.782;37.528;2023-04-26T01:17:02;98385.56;;;13.67;100.00
35435;BME280;21556;55.782;37.528;2023-04-26T01:19:31;98386.75;;;13.46;100.00
35435;BME280;21556;55.782;37.528;2023-04-26T01:21:57;98383.19;;;13.52;100.00
35435;BME280;21556;55.782;37.528;2023-04-26T01:24:23;98380.16;;;13.75;100.00
35435;BME280;21556;55.782;37.528;2023-04-26T01:26:48;98381.50;;;13.99;100.00
35435;BME280;21556;55.782;37.528;2023-04-26T01:29:16;98378.28;;;13.80;100.00
35435;BME280;21556;55.782;37.528;2023-04-26T01:31:43;98373.53;;;14.02;100.00
35435;BME280;21556;55.782;37.528;2023-04-26T01:34:09;98363.91;;;13.48;100.00
35435;BME280;21556;55.782;37.528;2023-04-26T01:36:34;98362.78;;;13.61;100.00
35435;BME280;21556;55.782;37.528;2023-04-26T01:39:00;98362.06;;;13.55;100.00
35435;BME280;21556;55.782;37.528;2023-04-26T01:41:26;98357.09;;;13.86;100.00
35435;BME280;21556;55.782;37.528;2023-04-26T01:43:52;98352.69;;;13.86;100.00
35435;BME280;21556;55.782;37.528;2023-04-26T01:46:18;98350.47;;;14.13;100.00
35435;BME280;21556;55.782;37.528;2023-04-26T01:48:44;98347.78;;;14.14;100.00
35435;BME280;21556;55.782;37.528;2023-04-26T01:51:10;98343.78;;;13.93;100.00
35435;BME280;21556;55.782;37.528;2023-04-26T01:53:35;98348.28;;;13.88;100.00
35435;BME280;21556;55.782;37.528;2023-04-26T01:56:03;98330.34;;;13.58;100.00
35435;BME280;21556;55.782;37.528;2023-04-26T01:58:30;98333.25;;;13.42;100.00
35435;BME280;21556;55.782;37.528;2023-04-26T02:01:04;98339.97;;;13.60;100.00
35435;BME280;21556;55.782;37.528;2023-04-26T02:03:35;98337.22;;;13.68;100.00
35435;BME280;21556;55.782;37.528;2023-04-26T02:06:03;98329.09;;;13.80;100.00
35435;BME280;21556;55.782;37.528;2023-04-26T02:08:29;98325.41;;;13.39;100.00
35435;BME280;21556;55.782;37.528;2023-04-26T02:10:55;98324.16;;;13.60;100.00
35435;BME280;21556;55.782;37.528;2023-04-26T02:13:21;98323.28;;;13.07;100.00
35435;BME280;21556;55.782;37.528;2023-04-26T02:15:50;98320.09;;;13.42;100.00
35435;BME280;21556;55.782;37.528;2023-04-26T02:18:18;98320.63;;;13.63;100.00
35435;BME280;21556;55.782;37.528;2023-04-26T02:20:46;98319.78;;;13.61;100.00
35435;BME280;21556;55.782;37.528;2023-04-26T02:23:13;98316.31;;;13.57;100.00
35435;BME280;21556;55.782;37.528;2023-04-26T02:25:45;98315.63;;;13.46;100.00
35435;BME280;21556;55.782;37.528;2023-04-26T02:28:12;98309.13;;;13.67;100.00
35435;BME280;21556;55.782;37.528;2023-04-26T02:30:39;98307.19;;;13.27;100.00
35435;BME280;21556;55.782;37.528;2023-04-26T02:33:05;98309.03;;;13.19;100.00
35435;BME280;21556;55.782;37.528;2023-04-26T02:35:32;98303.75;;;13.20;100.00
35435;BME280;21556;55.782;37.528;2023-04-26T02:38:00;98304.22;;;12.90;100.00
35435;BME280;21556;55.782;37.528;2023-04-26T02:40:27;98293.59;;;12.96;100.00
35435;BME280;21556;55.782;37.528;2023-04-26T02:42:54;98291.19;;;13.38;100.00
35435;BME280;21556;55.782;37.528;2023-04-26T02:45:20;98292.28;;;13.21;100.00
35435;BME280;21556;55.782;37.528;2023-04-26T02:47:46;98295.16;;;13.09;100.00
35435;BME280;21556;55.782;37.528;2023-04-26T02:50:17;98293.94;;;12.74;100.00
35435;BME280;21556;55.782;37.528;2023-04-26T02:52:43;98292.38;;;13.18;100.00
35435;BME280;21556;55.782;37.528;2023-04-26T02:55:09;98287.69;;;12.80;100.00
35435;BME280;21556;55.782;37.528;2023-04-26T02:57:35;98287.16;;;13.15;100.00
35435;BME280;21556;55.782;37.528;2023-04-26T03:00:02;98283.56;;;13.19;100.00
35435;BME280;21556;55.782;37.528;2023-04-26T03:02:30;98279.94;;;13.30;100.00
35435;BME280;21556;55.782;37.528;2023-04-26T03:04:56;98284.13;;;12.86;100.00
35435;BME280;21556;55.782;37.528;2023-04-26T03:07:28;98283.50;;;12.68;100.00
35435;BME280;21556;55.782;37.528;2023-04-26T03:09:54;98278.03;;;12.81;100.00
35435;BME280;21556;55.782;37.528;2023-04-26T03:12:20;98280.28;;;13.05;100.00
35435;BME280;21556;55.782;37.528;2023-04-26T03:14:47;98274.53;;;12.80;100.00
35435;BME280;21556;55.782;37.528;2023-04-26T03:17:14;98268.50;;;12.73;100.00
35435;BME280;21556;55.782;37.528;2023-04-26T03:19:42;98266.44;;;12.94;100.00
35435;BME280;21556;55.782;37.528;2023-04-26T03:22:07;98269.50;;;12.63;100.00
35435;BME280;21556;55.782;37.528;2023-04-26T03:24:35;98270.97;;;12.86;100.00
35435;BME280;21556;55.782;37.528;2023-04-26T03:27:01;98261.94;;;12.99;100.00
35435;BME280;21556;55.782;37.528;2023-04-26T03:29:27;98263.88;;;12.89;100.00
35435;BME280;21556;55.782;37.528;2023-04-26T03:31:53;98253.06;;;13.08;100.00
35435;BME280;21556;55.782;37.528;2023-04-26T03:34:19;98270.06;;;12.87;100.00
35435;BME280;21556;55.782;37.528;2023-04-26T03:36:45;98264.63;;;12.97;100.00
35435;BME280;21556;55.782;37.528;2023-04-26T03:39:11;98260.19;;;13.01;100.00
35435;BME280;21556;55.782;37.528;2023-04-26T03:41:37;98262.59;;;13.13;100.00
35435;BME280;21556;55.782;37.528;2023-04-26T03:44:06;98257.88;;;12.80;100.00
35435;BME280;21556;55.782;37.528;2023-04-26T03:46:33;98254.69;;;13.15;100.00
35435;BME280;21556;55.782;37.528;2023-04-26T03:48:59;98250.34;;;13.11;100.00
35435;BME280;21556;55.782;37.528;2023-04-26T03:51:27;98248.69;;;13.05;100.00
35435;BME280;21556;55.782;37.528;2023-04-26T03:53:54;98250.59;;;12.95;100.00
35435;BME280;21556;55.782;37.528;2023-04-26T03:56:20;98248.53;;;13.16;100.00
35435;BME280;21556;55.782;37.528;2023-04-26T03:58:47;98246.03;;;13.59;100.00
35435;BME280;21556;55.782;37.528;2023-04-26T04:01:14;98245.56;;;13.36;100.00
35435;BME280;21556;55.782;37.528;2023-04-26T04:03:40;98246.16;;;13.00;100.00
35435;BME280;21556;55.782;37.528;2023-04-26T04:06:06;98243.31;;;13.13;100.00
35435;BME280;21556;55.782;37.528;2023-04-26T04:08:34;98245.41;;;12.91;100.00
35435;BME280;21556;55.782;37.528;2023-04-26T04:11:01;98240.94;;;12.96;100.00
35435;BME280;21556;55.782;37.528;2023-04-26T04:13:28;98244.50;;;12.93;100.00
35435;BME280;21556;55.782;37.528;2023-04-26T04:15:54;98239.94;;;13.03;100.00
35435;BME280;21556;55.782;37.528;2023-04-26T04:18:20;98241.06;;;12.90;100.00
35435;BME280;21556;55.782;37.528;2023-04-26T04:20:48;98239.41;;;12.81;100.00
35435;BME280;21556;55.782;37.528;2023-04-26T04:23:14;98235.31;;;13.17;100.00
35435;BME280;21556;55.782;37.528;2023-04-26T04:25:41;98237.84;;;13.25;100.00
35435;BME280;21556;55.782;37.528;2023-04-26T04:28:11;98228.88;;;13.37;100.00
35435;BME280;21556;55.782;37.528;2023-04-26T04:30:39;98235.50;;;13.08;100.00
35435;BME280;21556;55.782;37.528;2023-04-26T04:33:06;98234.34;;;12.69;100.00
35435;BME280;21556;55.782;37.528;2023-04-26T04:35:35;98229.88;;;13.30;100.00
35435;BME280;21556;55.782;37.528;2023-04-26T04:38:04;98228.22;;;13.21;100.00
35435;BME280;21556;55.782;37.528;2023-04-26T04:40:38;98227.59;;;13.07;100.00
35435;BME280;21556;55.782;37.528;2023-04-26T04:43:09;98230.53;;;12.90;100.00
35435;BME280;21556;55.782;37.528;2023-04-26T04:45:40;98235.50;;;13.07;100.00
35435;BME280;21556;55.782;37.528;2023-04-26T04:48:07;98228.88;;;13.37;100.00
35435;BME280;21556;55.782;37.528;2023-04-26T04:50:34;98228.75;;;13.44;100.00
35435;BME280;21556;55.782;37.528;2023-04-26T04:53:01;98230.06;;;13.17;100.00
35435;BME280;21556;55.782;37.528;2023-04-26T04:55:30;98233.38;;;13.30;100.00
35435;BME280;21556;55.782;37.528;2023-04-26T04:58:00;98231.81;;;12.63;100.00
35435;BME280;21556;55.782;37.528;2023-04-26T05:00:27;98223.97;;;13.15;100.00
35435;BME280;21556;55.782;37.528;2023-04-26T05:03:13;98221.59;;;13.96;100.00
35435;BME280;21556;55.782;37.528;2023-04-26T05:05:40;98223.88;;;13.20;100.00
35435;BME280;21556;55.782;37.528;2023-04-26T05:08:06;98227.13;;;13.82;100.00
35435;BME280;21556;55.782;37.528;2023-04-26T05:10:34;98227.88;;;13.44;100.00
35435;BME280;21556;55.782;37.528;2023-04-26T05:13:02;98226.97;;;13.43;100.00
35435;BME280;21556;55.782;37.528;2023-04-26T05:15:32;98229.50;;;13.51;100.00
35435;BME280;21556;55.782;37.528;2023-04-26T05:17:58;98232.16;;;13.49;100.00
35435;BME280;21556;55.782;37.528;2023-04-26T05:20:25;98224.69;;;13.73;100.00
35435;BME280;21556;55.782;37.528;2023-04-26T05:22:51;98218.66;;;13.66;100.00
35435;BME280;21556;55.782;37.528;2023-04-26T05:25:18;98221.03;;;13.32;100.00
35435;BME280;21556;55.782;37.528;2023-04-26T05:27:47;98227.41;;;13.19;100.00
35435;BME280;21556;55.782;37.528;2023-04-26T05:30:19;98224.94;;;13.59;100.00
35435;BME280;21556;55.782;37.528;2023-04-26T05:32:50;98225.31;;;13.39;100.00
35435;BME280;21556;55.782;37.528;2023-04-26T05:35:35;98221.59;;;13.00;100.00
35435;BME280;21556;55.782;37.528;2023-04-26T05:38:00;98230.22;;;13.08;100.00
35435;BME280;21556;55.782;37.528;2023-04-26T05:40:27;98222.19;;;13.16;100.00
35435;BME280;21556;55.782;37.528;2023-04-26T05:42:54;98224.69;;;13.71;100.00
35435;BME280;21556;55.782;37.528;2023-04-26T05:45:20;98223.28;;;13.54;100.00
35435;BME280;21556;55.782;37.528;2023-04-26T05:47:46;98217.84;;;13.63;100.00
35435;BME280;21556;55.782;37.528;2023-04-26T05:50:13;98216.34;;;13.51;100.00
35435;BME280;21556;55.782;37.528;2023-04-26T05:52:39;98221.47;;;14.01;100.00
35435;BME280;21556;55.782;37.528;2023-04-26T05:55:06;98224.75;;;13.68;100.00
35435;BME280;21556;55.782;37.528;2023-04-26T05:57:32;98222.06;;;13.73;100.00
35435;BME280;21556;55.782;37.528;2023-04-26T05:59:59;98221.63;;;13.94;100.00
35435;BME280;21556;55.782;37.528;2023-04-26T06:02:28;98227.59;;;13.59;100.00
35435;BME280;21556;55.782;37.528;2023-04-26T06:04:55;98224.56;;;14.21;100.00
35435;BME280;21556;55.782;37.528;2023-04-26T06:07:21;98228.19;;;13.73;100.00
35435;BME280;21556;55.782;37.528;2023-04-26T06:09:47;98228.13;;;13.77;100.00
35435;BME280;21556;55.782;37.528;2023-04-26T06:12:13;98234.81;;;13.48;100.00
35435;BME280;21556;55.782;37.528;2023-04-26T06:14:42;98232.63;;;13.20;100.00
35435;BME280;21556;55.782;37.528;2023-04-26T06:17:13;98233.97;;;13.92;100.00
35435;BME280;21556;55.782;37.528;2023-04-26T06:19:39;98231.50;;;13.83;100.00
35435;BME280;21556;55.782;37.528;2023-04-26T06:22:05;98231.22;;;13.97;100.00
35435;BME280;21556;55.782;37.528;2023-04-26T06:24:32;98231.47;;;13.85;100.00
35435;BME280;21556;55.782;37.528;2023-04-26T06:27:01;98235.94;;;13.80;100.00
35435;BME280;21556;55.782;37.528;2023-04-26T06:29:31;98231.38;;;13.43;100.00
35435;BME280;21556;55.782;37.528;2023-04-26T06:31:58;98235.75;;;13.45;100.00
35435;BME280;21556;55.782;37.528;2023-04-26T06:34:26;98236.88;;;13.31;100.00
35435;BME280;21556;55.782;37.528;2023-04-26T06:36:53;98228.25;;;13.70;100.00
35435;BME280;21556;55.782;37.528;2023-04-26T06:39:21;98235.06;;;13.81;100.00
35435;BME280;21556;55.782;37.528;2023-04-26T06:41:47;98236.56;;;12.95;100.00
35435;BME280;21556;55.782;37.528;2023-04-26T06:44:24;98241.75;;;12.99;100.00
35435;BME280;21556;55.782;37.528;2023-04-26T06:46:53;98243.22;;;13.17;100.00
35435;BME280;21556;55.782;37.528;2023-04-26T06:49:20;98250.59;;;13.49;100.00
35435;BME280;21556;55.782;37.528;2023-04-26T06:51:45;98252.59;;;13.35;100.00
35435;BME280;21556;55.782;37.528;2023-04-26T06:54:11;98249.72;;;13.49;100.00
35435;BME280;21556;55.782;37.528;2023-04-26T06:56:37;98251.19;;;13.65;100.00
35435;BME280;21556;55.782;37.528;2023-04-26T06:59:05;98255.09;;;13.89;100.00
35435;BME280;21556;55.782;37.528;2023-04-26T07:01:32;98254.41;;;13.32;100.00
35435;BME280;21556;55.782;37.528;2023-04-26T07:04:00;98259.50;;;13.44;100.00
35435;BME280;21556;55.782;37.528;2023-04-26T07:06:29;98252.31;;;13.52;100.00
35435;BME280;21556;55.782;37.528;2023-04-26T07:08:59;98251.59;;;13.89;100.00
35435;BME280;21556;55.782;37.528;2023-04-26T07:11:27;98248.16;;;14.29;100.00
35435;BME280;21556;55.782;37.528;2023-04-26T07:13:53;98255.09;;;13.89;100.00
35435;BME280;21556;55.782;37.528;2023-04-26T07:16:21;98257.63;;;13.95;100.00
35435;BME280;21556;55.782;37.528;2023-04-26T07:18:48;98251.19;;;14.09;100.00
35435;BME280;21556;55.782;37.528;2023-04-26T07:21:15;98254.94;;;13.99;100.00
35435;BME280;21556;55.782;37.528;2023-04-26T07:23:42;98256.78;;;13.93;100.00
35435;BME280;21556;55.782;37.528;2023-04-26T07:26:09;98258.66;;;13.87;100.00
35435;BME280;21556;55.782;37.528;2023-04-26T07:28:37;98267.47;;;13.87;100.00
35435;BME280;21556;55.782;37.528;2023-04-26T07:31:03;98269.06;;;13.48;100.00
35435;BME280;21556;55.782;37.528;2023-04-26T07:33:30;98263.88;;;13.90;100.00
35435;BME280;21556;55.782;37.528;2023-04-26T07:35:57;98270.91;;;13.89;100.00
35435;BME280;21556;55.782;37.528;2023-04-26T07:38:27;98269.91;;;13.96;100.00
35435;BME280;21556;55.782;37.528;2023-04-26T07:40:54;98273.34;;;14.00;100.00
35435;BME280;21556;55.782;37.528;2023-04-26T07:43:21;98271.31;;;13.69;100.00
35435;BME280;21556;55.782;37.528;2023-04-26T07:45:48;98271.34;;;14.13;100.00
35435;BME280;21556;55.782;37.528;2023-04-26T07:48:16;98274.91;;;13.64;100.00
35435;BME280;21556;55.782;37.528;2023-04-26T07:50:44;98271.56;;;14.02;100.00
35435;BME280;21556;55.782;37.528;2023-04-26T07:53:11;98254.16;;;14.35;100.00
35435;BME280;21556;55.782;37.528;2023-04-26T07:55:37;98266.00;;;14.58;100.00
35435;BME280;21556;55.782;37.528;2023-04-26T07:58:03;98274.25;;;13.99;100.00
35435;BME280;21556;55.782;37.528;2023-04-26T08:00:29;98278.47;;;14.51;100.00
35435;BME280;21556;55.782;37.528;2023-04-26T08:02:56;98279.09;;;14.62;100.00
35435;BME280;21556;55.782;37.528;2023-04-26T08:05:23;98270.63;;;14.47;100.00
35435;BME280;21556;55.782;37.528;2023-04-26T08:07:49;98276.78;;;14.47;100.00
35435;BME280;21556;55.782;37.528;2023-04-26T08:10:15;98279.38;;;14.50;100.00
35435;BME280;21556;55.782;37.528;2023-04-26T08:12:41;98270.69;;;14.84;100.00
35435;BME280;21556;55.782;37.528;2023-04-26T08:15:10;98272.59;;;14.79;100.00
35435;BME280;21556;55.782;37.528;2023-04-26T08:17:38;98283.06;;;14.40;100.00
35435;BME280;21556;55.782;37.528;2023-04-26T08:20:05;98280.13;;;14.55;100.00
35435;BME280;21556;55.782;37.528;2023-04-26T08:22:31;98289.38;;;14.33;100.00
35435;BME280;21556;55.782;37.528;2023-04-26T08:24:59;98287.00;;;14.62;100.00
35435;BME280;21556;55.782;37.528;2023-04-26T08:27:25;98291.06;;;14.77;100.00
35435;BME280;21556;55.782;37.528;2023-04-26T08:29:57;98293.50;;;14.46;100.00
35435;BME280;21556;55.782;37.528;2023-04-26T08:32:23;98286.81;;;14.72;100.00
35435;BME280;21556;55.782;37.528;2023-04-26T08:34:49;98296.97;;;14.05;100.00
35435;BME280;21556;55.782;37.528;2023-04-26T08:37:16;98301.22;;;14.13;100.00
35435;BME280;21556;55.782;37.528;2023-04-26T08:39:44;98306.75;;;14.43;100.00
35435;BME280;21556;55.782;37.528;2023-04-26T08:42:14;98302.25;;;14.50;100.00
35435;BME280;21556;55.782;37.528;2023-04-26T08:44:43;98293.38;;;14.52;100.00
35435;BME280;21556;55.782;37.528;2023-04-26T08:47:15;98294.88;;;14.65;100.00
35435;BME280;21556;55.782;37.528;2023-04-26T08:49:45;98299.16;;;14.69;100.00
35435;BME280;21556;55.782;37.528;2023-04-26T08:52:18;98298.38;;;14.66;100.00
35435;BME280;21556;55.782;37.528;2023-04-26T08:54:49;98297.88;;;14.89;100.00
35435;BME280;21556;55.782;37.528;2023-04-26T08:57:23;98300.03;;;14.70;100.00
35435;BME280;21556;55.782;37.528;2023-04-26T08:59:51;98293.06;;;14.67;100.00
35435;BME280;21556;55.782;37.528;2023-04-26T09:02:20;98297.56;;;15.01;100.00
35435;BME280;21556;55.782;37.528;2023-04-26T09:04:47;98297.94;;;14.86;100.00
35435;BME280;21556;55.782;37.528;2023-04-26T09:07:19;98295.91;;;14.97;100.00
35435;BME280;21556;55.782;37.528;2023-04-26T09:09:50;98308.19;;;15.35;100.00
35435;BME280;21556;55.782;37.528;2023-04-26T09:12:18;98308.53;;;14.84;100.00
35435;BME280;21556;55.782;37.528;2023-04-26T09:14:47;98308.97;;;14.64;100.00
35435;BME280;21556;55.782;37.528;2023-04-26T09:17:33;98315.19;;;15.01;100.00
35435;BME280;21556;55.782;37.528;2023-04-26T09:22:52;98329.06;;;14.27;100.00
35435;BME280;21556;55.782;37.528;2023-04-26T09:25:28;98324.56;;;14.75;100.00
35435;BME280;21556;55.782;37.528;2023-04-26T09:27:54;98318.56;;;14.68;100.00
35435;BME280;21556;55.782;37.528;2023-04-26T09:30:21;98316.19;;;14.95;100.00
35435;BME280;21556;55.782;37.528;2023-04-26T09:33:14;98322.81;;;14.74;100.00
35435;BME280;21556;55.782;37.528;2023-04-26T09:35:42;98325.22;;;14.85;100.00
35435;BME280;21556;55.782;37.528;2023-04-26T09:38:14;98324.69;;;14.69;100.00
35435;BME280;21556;55.782;37.528;2023-04-26T09:41:06;98330.31;;;14.54;100.00
35435;BME280;21556;55.782;37.528;2023-04-26T09:43:51;98336.53;;;14.48;100.00
35435;BME280;21556;55.782;37.528;2023-04-26T09:46:24;98334.59;;;14.14;100.00
35435;BME280;21556;55.782;37.528;2023-04-26T09:49:00;98338.56;;;13.90;100.00
35435;BME280;21556;55.782;37.528;2023-04-26T09:51:28;98343.56;;;14.06;100.00
35435;BME280;21556;55.782;37.528;2023-04-26T09:53:56;98343.56;;;14.06;100.00
35435;BME280;21556;55.782;37.528;2023-04-26T09:56:22;98348.44;;;13.79;100.00
35435;BME280;21556;55.782;37.528;2023-04-26T09:58:59;98342.56;;;14.13;100.00
35435;BME280;21556;55.782;37.528;2023-04-26T10:01:27;98347.16;;;14.47;100.00
35435;BME280;21556;55.782;37.528;2023-04-26T10:03:59;98342.19;;;14.31;100.00
35435;BME280;21556;55.782;37.528;2023-04-26T10:06:26;98348.22;;;14.38;100.00
35435;BME280;21556;55.782;37.528;2023-04-26T10:08:53;98356.63;;;14.12;100.00
35435;BME280;21556;55.782;37.528;2023-04-26T10:11:20;98353.50;;;13.91;100.00
35435;BME280;21556;55.782;37.528;2023-04-26T10:13:49;98362.03;;;14.06;100.00
35435;BME280;21556;55.782;37.528;2023-04-26T10:16:15;98359.53;;;13.98;100.00
35435;BME280;21556;55.782;37.528;2023-04-26T10:18:41;98363.50;;;14.20;100.00
35435;BME280;21556;55.782;37.528;2023-04-26T10:21:27;98359.06;;;14.67;100.00
35435;BME280;21556;55.782;37.528;2023-04-26T10:23:55;98356.59;;;14.58;100.00
35435;BME280;21556;55.782;37.528;2023-04-26T10:26:49;98356.84;;;14.46;100.00
35435;BME280;21556;55.782;37.528;2023-04-26T10:29:23;98358.16;;;14.68;100.00
35435;BME280;21556;55.782;37.528;2023-04-26T10:34:32;98365.63;;;15.27;100.00
35435;BME280;21556;55.782;37.528;2023-04-26T10:37:15;98370.22;;;14.80;100.00
35435;BME280;21556;55.782;37.528;2023-04-26T10:39:43;98373.75;;;14.79;100.00
35435;BME280;21556;55.782;37.528;2023-04-26T10:42:29;98374.56;;;14.83;100.00
35435;BME280;21556;55.782;37.528;2023-04-26T10:44:59;98380.19;;;14.19;100.00
35435;BME280;21556;55.782;37.528;2023-04-26T10:47:34;98382.69;;;14.29;100.00
35435;BME280;21556;55.782;37.528;2023-04-26T10:50:02;98377.16;;;14.41;100.00
35435;BME280;21556;55.782;37.528;2023-04-26T10:52:30;98381.81;;;14.73;100.00
35435;BME280;21556;55.782;37.528;2023-04-26T10:54:58;98383.41;;;14.80;100.00
35435;BME280;21556;55.782;37.528;2023-04-26T10:57:52;98373.44;;;14.53;100.00
35435;BME280;21556;55.782;37.528;2023-04-26T11:00:27;98379.84;;;14.83;100.00
35435;BME280;21556;55.782;37.528;2023-04-26T11:02:57;98385.13;;;14.83;100.00
35435;BME280;21556;55.782;37.528;2023-04-26T11:05:40;98381.69;;;14.79;100.00
35435;BME280;21556;55.782;37.528;2023-04-26T11:08:16;98390.06;;;15.00;100.00
35435;BME280;21556;55.782;37.528;2023-04-26T11:10:48;98374.06;;;15.43;100.00
35435;BME280;21556;55.782;37.528;2023-04-26T11:13:17;98378.78;;;15.30;100.00
35435;BME280;21556;55.782;37.528;2023-04-26T11:15:44;98374.44;;;15.65;100.00
35435;BME280;21556;55.782;37.528;2023-04-26T11:18:11;98375.28;;;15.67;100.00
35435;BME280;21556;55.782;37.528;2023-04-26T11:20:38;98379.81;;;15.23;100.00
35435;BME280;21556;55.782;37.528;2023-04-26T11:23:06;98379.50;;;15.74;100.00
35435;BME280;21556;55.782;37.528;2023-04-26T11:25:32;98385.03;;;15.63;100.00
35435;BME280;21556;55.782;37.528;2023-04-26T11:28:00;98386.81;;;15.63;100.00
35435;BME280;21556;55.782;37.528;2023-04-26T11:30:28;98399.69;;;16.11;100.00
35435;BME280;21556;55.782;37.528;2023-04-26T11:32:55;98387.19;;;16.18;100.00
35435;BME280;21556;55.782;37.528;2023-04-26T11:35:23;98393.50;;;16.45;100.00
35435;BME280;21556;55.782;37.528;2023-04-26T11:37:51;98397.25;;;16.03;100.00
35435;BME280;21556;55.782;37.528;2023-04-26T11:40:17;98397.91;;;16.44;100.00
35435;BME280;21556;55.782;37.528;2023-04-26T11:42:44;98399.09;;;16.34;100.00
35435;BME280;21556;55.782;37.528;2023-04-26T11:45:11;98405.53;;;15.89;100.00
35435;BME280;21556;55.782;37.528;2023-04-26T11:47:37;98399.28;;;15.94;100.00
35435;BME280;21556;55.782;37.528;2023-04-26T11:50:05;98411.63;;;15.93;100.00
35435;BME280;21556;55.782;37.528;2023-04-26T11:52:31;98406.66;;;16.15;100.00
35435;BME280;21556;55.782;37.528;2023-04-26T11:55:04;98399.97;;;15.64;100.00
35435;BME280;21556;55.782;37.528;2023-04-26T11:57:32;98408.75;;;16.02;100.00
35435;BME280;21556;55.782;37.528;2023-04-26T12:00:11;98419.00;;;16.15;100.00
35435;BME280;21556;55.782;37.528;2023-04-26T12:02:46;98420.16;;;15.70;100.00
35435;BME280;21556;55.782;37.528;2023-04-26T12:05:23;98428.56;;;15.86;100.00
35435;BME280;21556;55.782;37.528;2023-04-26T12:07:54;98437.97;;;15.98;100.00
35435;BME280;21556;55.782;37.528;2023-04-26T12:10:30;98437.41;;;15.85;100.00
35435;BME280;21556;55.782;37.528;2023-04-26T12:12:58;98420.31;;;15.62;100.00
35435;BME280;21556;55.782;37.528;2023-04-26T12:15:28;98425.13;;;15.82;100.00
35435;BME280;21556;55.782;37.528;2023-04-26T12:18:09;98421.22;;;15.97;100.00
35435;BME280;21556;55.782;37.528;2023-04-26T12:20:37;98421.63;;;15.82;100.00
35435;BME280;21556;55.782;37.528;2023-04-26T12:23:05;98433.91;;;15.46;100.00
35435;BME280;21556;55.782;37.528;2023-04-26T12:25:33;98431.81;;;15.60;100.00
35435;BME280;21556;55.782;37.528;2023-04-26T12:27:59;98424.75;;;15.60;100.00
35435;BME280;21556;55.782;37.528;2023-04-26T12:30:29;98430.47;;;15.42;100.00
35435;BME280;21556;55.782;37.528;2023-04-26T12:33:01;98429.47;;;15.46;100.00
35435;BME280;21556;55.782;37.528;2023-04-26T12:35:27;98439.06;;;15.89;100.00
35435;BME280;21556;55.782;37.528;2023-04-26T12:37:53;98427.16;;;16.07;100.00
35435;BME280;21556;55.782;37.528;2023-04-26T12:40:22;98433.41;;;15.69;100.00
35435;BME280;21556;55.782;37.528;2023-04-26T12:42:49;98421.66;;;15.80;100.00
35435;BME280;21556;55.782;37.528;2023-04-26T12:45:16;98431.53;;;16.41;100.00
35435;BME280;21556;55.782;37.528;2023-04-26T12:47:45;98436.53;;;16.20;100.00
35435;BME280;21556;55.782;37.528;2023-04-26T12:50:13;98431.44;;;16.12;100.00
35435;BME280;21556;55.782;37.528;2023-04-26T12:52:41;98437.03;;;16.33;100.00